Time;durP1;ratioP1;P1;durP2;ratioP2;P2;SDS_P1;SDS_P2;PMS_P1;PMS_P2;Temp;Humidity;BMP_temperature;BMP_pressure;BME280_temperature;BME280_humidity;BME280_pressure;Samples;Min_cycle;Max_cycle;Signal;HPM_P1;HPM_P2
2022/09/08 00:01:16;;;;;;;10.57;6.13;;;18.30;99.90;;;;;;5107196;27;40141;-59
2022/09/08 00:03:44;;;;;;;9.73;6.35;;;18.30;99.90;;;;;;5107295;27;37425;-59
2022/09/08 00:06:13;;;;;;;11.38;7.85;;;18.30;99.90;;;;;;5107262;27;36420;-59
2022/09/08 00:08:45;;;;;;;11.60;6.28;;;18.30;99.90;;;;;;5105545;27;36322;-59
2022/09/08 00:11:16;;;;;;;8.27;5.55;;;18.30;99.90;;;;;;5107189;27;36430;-59
2022/09/08 00:13:44;;;;;;;9.38;6.60;;;18.30;99.90;;;;;;5107547;27;37735;-59
2022/09/08 00:16:11;;;;;;;9.75;6.35;;;18.30;99.90;;;;;;5107952;27;39518;-59
2022/09/08 00:18:41;;;;;;;10.13;5.93;;;18.30;99.90;;;;;;5107084;27;38534;-59
2022/09/08 00:21:08;;;;;;;9.43;6.80;;;18.30;99.90;;;;;;5106849;27;37746;-59
2022/09/08 00:23:36;;;;;;;11.10;7.13;;;18.40;99.90;;;;;;5106104;27;37563;-59
2022/09/08 00:26:05;;;;;;;13.93;8.88;;;18.40;99.90;;;;;;5105202;27;35346;-59
2022/09/08 00:28:33;;;;;;;13.00;8.20;;;18.40;99.90;;;;;;5106227;27;39328;-59
2022/09/08 00:31:00;;;;;;;11.85;7.10;;;18.40;99.90;;;;;;5106341;27;36348;-59
2022/09/08 00:33:29;;;;;;;9.40;7.38;;;18.40;99.90;;;;;;5107401;27;38418;-59
2022/09/08 00:35:56;;;;;;;12.48;7.97;;;18.40;99.90;;;;;;5107311;27;37250;-59
2022/09/08 00:38:23;;;;;;;15.35;8.85;;;18.40;99.90;;;;;;5106912;27;37244;-59
2022/09/08 00:40:52;;;;;;;11.70;9.05;;;18.30;99.90;;;;;;5107091;27;37903;-59
2022/09/08 00:43:34;;;;;;;11.15;8.68;;;18.30;99.90;;;;;;5106887;27;36987;-59
2022/09/08 00:46:18;;;;;;;14.85;9.23;;;18.30;99.90;;;;;;5107386;27;37133;-59
2022/09/08 00:48:49;;;;;;;11.48;9.23;;;18.30;99.90;;;;;;5107523;27;39199;-59
2022/09/08 00:51:17;;;;;;;11.88;9.35;;;18.30;99.90;;;;;;5105415;27;37798;-59
2022/09/08 00:53:47;;;;;;;12.60;8.90;;;18.20;99.90;;;;;;5107552;27;37202;-59
2022/09/08 00:56:16;;;;;;;13.05;8.73;;;18.20;99.90;;;;;;5106762;27;36544;-59
2022/09/08 00:58:45;;;;;;;14.65;9.57;;;18.10;99.90;;;;;;5105111;27;37728;-58
2022/09/08 01:01:12;;;;;;;13.85;9.75;;;18.10;99.90;;;;;;5106495;27;38069;-58
2022/09/08 01:03:41;;;;;;;12.20;9.80;;;18.10;99.90;;;;;;5105321;27;37161;-59
2022/09/08 01:06:20;;;;;;;12.95;8.93;;;18.10;99.90;;;;;;5105719;27;36995;-59
2022/09/08 01:14:45;;;;;;;12.82;9.93;;;18.10;99.90;;;;;;5064627;28;38474;-59
2022/09/08 01:17:22;;;;;;;13.63;10.18;;;18.10;99.90;;;;;;5088557;27;37567;-59
2022/09/08 01:19:50;;;;;;;12.43;9.32;;;18.10;99.90;;;;;;5106201;27;37496;-59
2022/09/08 01:22:30;;;;;;;13.50;9.20;;;18.10;99.90;;;;;;5105573;27;38709;-59
2022/09/08 01:25:11;;;;;;;13.70;10.40;;;18.00;99.90;;;;;;5106145;27;36399;-58
2022/09/08 01:27:41;;;;;;;19.98;11.10;;;18.00;99.90;;;;;;5105593;27;36748;-58
2022/09/08 01:30:10;;;;;;;16.77;11.73;;;18.00;99.90;;;;;;5105851;27;37094;-59
2022/09/08 01:32:41;;;;;;;16.83;12.85;;;18.00;99.90;;;;;;5105307;27;38595;-58
2022/09/08 01:35:09;;;;;;;14.18;12.55;;;17.90;99.90;;;;;;5107584;27;38533;-56
2022/09/08 01:37:36;;;;;;;17.27;14.23;;;17.90;99.90;;;;;;5105803;27;36666;-56
2022/09/08 01:40:05;;;;;;;18.42;14.63;;;17.90;99.90;;;;;;5106032;27;37526;-56
2022/09/08 01:42:33;;;;;;;19.73;15.55;;;18.00;99.90;;;;;;5104343;27;37907;-56
2022/09/08 01:45:02;;;;;;;20.00;16.23;;;18.00;99.90;;;;;;5105776;27;38076;-56
2022/09/08 01:47:30;;;;;;;17.10;14.90;;;18.00;99.90;;;;;;5104527;27;35696;-56
2022/09/08 01:49:57;;;;;;;18.38;16.48;;;18.10;99.90;;;;;;5106878;27;38133;-56
2022/09/08 01:52:25;;;;;;;20.65;17.00;;;18.10;99.90;;;;;;5102246;27;37777;-56
2022/09/08 01:54:52;;;;;;;19.67;16.67;;;18.10;99.90;;;;;;5099919;27;38249;-56
2022/09/08 01:57:19;;;;;;;21.75;17.58;;;18.10;99.90;;;;;;5101156;27;39469;-56
2022/09/08 01:59:47;;;;;;;23.63;17.88;;;18.10;99.90;;;;;;5104585;27;38684;-56
2022/09/08 02:02:15;;;;;;;21.35;17.48;;;18.20;99.90;;;;;;5105482;27;37841;-56
2022/09/08 02:04:43;;;;;;;20.85;17.20;;;18.20;99.90;;;;;;5107007;27;38280;-56
2022/09/08 02:07:11;;;;;;;24.40;18.80;;;18.20;99.90;;;;;;5106164;27;35715;-56
2022/09/08 02:09:38;;;;;;;22.23;19.00;;;18.20;99.90;;;;;;5104729;27;37807;-56
2022/09/08 02:12:06;;;;;;;21.83;19.17;;;18.20;99.90;;;;;;5105218;27;38302;-56
2022/09/08 02:14:33;;;;;;;21.83;19.45;;;18.20;99.90;;;;;;5106103;27;37133;-56
2022/09/08 02:17:00;;;;;;;25.92;20.92;;;18.20;99.90;;;;;;5104166;27;36933;-56
2022/09/08 02:19:29;;;;;;;22.90;19.85;;;18.30;99.90;;;;;;5106128;27;38480;-56
2022/09/08 02:21:56;;;;;;;24.98;21.13;;;18.20;99.90;;;;;;5106459;27;37882;-56
2022/09/08 02:24:23;;;;;;;23.27;20.50;;;18.30;99.90;;;;;;5103394;27;37292;-56
2022/09/08 02:26:51;;;;;;;23.20;20.70;;;18.30;99.90;;;;;;5102235;27;36644;-56
2022/09/08 02:29:18;;;;;;;29.25;21.70;;;18.30;99.90;;;;;;5104135;27;37698;-56
2022/09/08 02:31:45;;;;;;;22.80;20.23;;;18.30;99.90;;;;;;5101983;27;39547;-56
2022/09/08 02:34:13;;;;;;;23.92;20.73;;;18.30;99.90;;;;;;5101331;27;38585;-56
2022/09/08 02:36:42;;;;;;;23.35;20.95;;;18.30;99.90;;;;;;5102692;27;36559;-56
2022/09/08 02:39:15;;;;;;;26.58;21.45;;;18.30;99.90;;;;;;5103228;27;36365;-56
2022/09/08 02:41:43;;;;;;;25.00;21.73;;;18.30;99.90;;;;;;5103286;27;38031;-56
2022/09/08 02:44:11;;;;;;;26.48;21.90;;;18.30;99.90;;;;;;5105214;27;37287;-56
2022/09/08 02:46:39;;;;;;;23.45;20.33;;;18.30;99.90;;;;;;5104805;27;38305;-56
2022/09/08 02:49:06;;;;;;;28.52;22.45;;;18.30;99.90;;;;;;5105231;27;36314;-56
2022/09/08 02:51:34;;;;;;;25.75;22.92;;;18.30;99.90;;;;;;5100445;27;38212;-56
2022/09/08 02:54:03;;;;;;;26.08;23.02;;;18.30;99.90;;;;;;5104711;27;37755;-56
2022/09/08 02:56:31;;;;;;;25.95;21.52;;;18.30;99.90;;;;;;5104090;27;37794;-56
2022/09/08 02:58:58;;;;;;;26.83;22.08;;;18.30;99.90;;;;;;5104758;27;38339;-56
2022/09/08 03:01:26;;;;;;;26.60;23.27;;;18.30;99.90;;;;;;5104457;27;37419;-56
2022/09/08 03:03:53;;;;;;;27.25;23.25;;;18.30;99.90;;;;;;5104790;27;38475;-56
2022/09/08 03:06:21;;;;;;;26.60;22.80;;;18.40;99.90;;;;;;5104687;27;38076;-56
2022/09/08 03:08:49;;;;;;;30.95;23.80;;;18.40;99.90;;;;;;5104294;27;36259;-56
2022/09/08 03:11:17;;;;;;;28.75;24.48;;;18.40;99.90;;;;;;5101559;27;36374;-56
2022/09/08 03:13:45;;;;;;;29.48;25.13;;;18.40;99.90;;;;;;5103505;27;36247;-56
2022/09/08 03:16:12;;;;;;;27.30;24.00;;;18.40;99.90;;;;;;5104438;27;38437;-56
2022/09/08 03:18:40;;;;;;;26.25;23.38;;;18.40;99.90;;;;;;5104094;27;37933;-56
2022/09/08 03:21:10;;;;;;;28.17;24.25;;;18.40;99.90;;;;;;5105077;27;37528;-56
2022/09/08 03:23:38;;;;;;;31.92;26.45;;;18.50;99.90;;;;;;5103268;27;37522;-56
2022/09/08 03:26:07;;;;;;;31.45;25.02;;;18.50;99.90;;;;;;5102993;27;36939;-56
2022/09/08 03:28:37;;;;;;;29.75;25.80;;;18.50;99.90;;;;;;5102849;27;37689;-56
2022/09/08 03:31:07;;;;;;;27.90;23.42;;;18.50;99.90;;;;;;5103199;27;37651;-56
2022/09/08 03:33:35;;;;;;;29.90;25.98;;;18.50;99.90;;;;;;5104663;27;38452;-57
2022/09/08 03:36:04;;;;;;;34.83;29.55;;;18.50;99.90;;;;;;5104568;27;36913;-56
2022/09/08 03:38:32;;;;;;;30.73;26.77;;;18.50;99.90;;;;;;5104438;27;38212;-56
2022/09/08 03:40:59;;;;;;;29.90;26.60;;;18.50;99.90;;;;;;5102183;27;37925;-56
2022/09/08 03:43:27;;;;;;;30.73;27.45;;;18.50;99.90;;;;;;5104467;27;37980;-56
2022/09/08 03:45:56;;;;;;;30.20;26.92;;;18.50;99.90;;;;;;5104780;27;38366;-56
2022/09/08 03:48:23;;;;;;;36.30;27.25;;;18.50;99.90;;;;;;5104357;27;38210;-56
2022/09/08 03:50:51;;;;;;;30.27;26.80;;;18.50;99.90;;;;;;5104574;27;38243;-58
2022/09/08 03:53:18;;;;;;;31.98;27.17;;;18.50;99.90;;;;;;5103993;27;37455;-57
2022/09/08 03:55:46;;;;;;;34.75;28.80;;;18.50;99.90;;;;;;5103639;27;36674;-57
2022/09/08 03:58:13;;;;;;;32.53;28.02;;;18.50;99.90;;;;;;5104666;27;36890;-57
2022/09/08 04:00:42;;;;;;;30.88;27.58;;;18.50;99.90;;;;;;5104444;27;38485;-57
2022/09/08 04:03:11;;;;;;;33.28;29.77;;;18.50;99.90;;;;;;5104882;27;38845;-57
2022/09/08 04:05:39;;;;;;;33.08;27.83;;;18.60;99.90;;;;;;5104606;27;37079;-57
2022/09/08 04:08:07;;;;;;;31.40;27.60;;;18.60;99.90;;;;;;5103506;27;39281;-57
2022/09/08 04:10:34;;;;;;;30.70;27.50;;;18.50;99.90;;;;;;5103010;27;36547;-57
2022/09/08 04:13:02;;;;;;;30.38;27.17;;;18.60;99.90;;;;;;5103946;27;37913;-57
2022/09/08 04:15:29;;;;;;;33.03;28.00;;;18.50;99.90;;;;;;5103410;27;36877;-57
2022/09/08 04:17:56;;;;;;;33.60;29.27;;;18.60;99.90;;;;;;5104076;27;37991;-57
2022/09/08 04:20:25;;;;;;;30.85;27.65;;;18.60;99.90;;;;;;5104287;27;38427;-57
2022/09/08 04:22:52;;;;;;;33.08;28.17;;;18.60;99.90;;;;;;5098405;27;37332;-57
2022/09/08 04:25:22;;;;;;;33.72;27.25;;;18.60;99.90;;;;;;5098836;27;36825;-57
2022/09/08 04:27:49;;;;;;;33.55;28.38;;;18.60;99.90;;;;;;5099871;27;37584;-57
2022/09/08 04:30:17;;;;;;;33.30;28.73;;;18.50;99.90;;;;;;5099628;27;37952;-57
2022/09/08 04:32:44;;;;;;;32.55;29.05;;;18.60;99.90;;;;;;5099908;27;38071;-57
2022/09/08 04:35:12;;;;;;;32.63;28.70;;;18.50;99.90;;;;;;5099277;27;37481;-57
2022/09/08 04:37:40;;;;;;;37.42;30.95;;;18.60;99.90;;;;;;5101291;27;35603;-57
2022/09/08 04:40:09;;;;;;;33.63;29.58;;;18.60;99.90;;;;;;5104899;27;37823;-57
2022/09/08 04:42:36;;;;;;;34.10;30.40;;;18.60;99.90;;;;;;5104325;27;36282;-57
2022/09/08 04:45:05;;;;;;;38.35;31.98;;;18.60;99.90;;;;;;5108034;27;36738;-57
2022/09/08 04:47:33;;;;;;;31.70;28.40;;;18.60;99.90;;;;;;5107555;27;36449;-57
2022/09/08 04:50:01;;;;;;;35.00;31.20;;;18.60;99.90;;;;;;5107618;27;37790;-57
2022/09/08 04:52:28;;;;;;;33.88;30.25;;;18.60;99.90;;;;;;5105136;27;36418;-57
2022/09/08 04:54:57;;;;;;;33.83;30.15;;;18.60;99.90;;;;;;5105544;27;36644;-57
2022/09/08 04:57:24;;;;;;;35.85;32.08;;;18.60;99.90;;;;;;5105019;27;38852;-57
2022/09/08 04:59:53;;;;;;;35.08;30.40;;;18.60;99.90;;;;;;5104700;27;38057;-57
2022/09/08 05:02:20;;;;;;;34.92;31.23;;;18.60;99.90;;;;;;5104758;27;36390;-57
2022/09/08 05:04:48;;;;;;;32.58;29.17;;;18.70;99.90;;;;;;5105128;27;36710;-57
2022/09/08 05:07:15;;;;;;;38.40;31.52;;;18.70;99.90;;;;;;5104634;27;36336;-57
2022/09/08 05:09:43;;;;;;;33.85;30.13;;;18.70;99.90;;;;;;5104547;27;39520;-58
2022/09/08 05:12:11;;;;;;;33.63;29.85;;;18.70;99.90;;;;;;5104631;27;37375;-57
2022/09/08 05:14:39;;;;;;;32.42;29.10;;;18.70;99.90;;;;;;5103207;27;36637;-57
2022/09/08 05:17:06;;;;;;;32.80;28.55;;;18.80;99.90;;;;;;5102425;27;37765;-57
2022/09/08 05:19:34;;;;;;;35.30;31.48;;;18.80;99.90;;;;;;5098265;27;38317;-57
2022/09/08 05:22:01;;;;;;;33.20;29.73;;;18.80;99.90;;;;;;5097530;27;37332;-57
2022/09/08 05:24:28;;;;;;;31.75;27.60;;;18.80;99.90;;;;;;5099725;27;35484;-57
2022/09/08 05:26:56;;;;;;;34.15;29.67;;;18.80;99.90;;;;;;5095767;27;38475;-57
2022/09/08 05:29:24;;;;;;;32.53;28.15;;;18.90;99.90;;;;;;5101047;27;38734;-57
2022/09/08 05:31:52;;;;;;;32.55;29.05;;;18.90;99.90;;;;;;5098247;27;36768;-57
2022/09/08 05:34:19;;;;;;;34.17;28.83;;;18.90;99.90;;;;;;5100773;27;35548;-57
2022/09/08 05:36:46;;;;;;;31.48;28.30;;;18.80;99.90;;;;;;5102063;27;38539;-57
2022/09/08 05:39:14;;;;;;;35.47;29.20;;;18.80;99.90;;;;;;5103463;27;37872;-57
2022/09/08 05:41:41;;;;;;;34.65;30.95;;;18.80;99.90;;;;;;5101901;27;36277;-57
2022/09/08 05:44:14;;;;;;;29.70;26.55;;;18.80;99.90;;;;;;5099904;27;37423;-57
2022/09/08 05:46:44;;;;;;;33.47;29.85;;;18.80;99.90;;;;;;5102491;27;38116;-57
2022/09/08 05:49:11;;;;;;;33.55;29.25;;;18.80;99.90;;;;;;5097991;27;38750;-57
2022/09/08 05:51:38;;;;;;;31.92;28.48;;;18.80;99.90;;;;;;5101561;27;36318;-57
2022/09/08 05:54:06;;;;;;;32.03;28.55;;;18.80;99.90;;;;;;5101146;27;38503;-57
2022/09/08 05:56:34;;;;;;;32.92;29.33;;;18.80;99.90;;;;;;5100612;27;38024;-57
2022/09/08 05:59:01;;;;;;;33.25;29.88;;;18.80;99.90;;;;;;5099100;27;37567;-57
2022/09/08 06:01:31;;;;;;;33.60;30.08;;;18.80;99.90;;;;;;5101577;27;37579;-57
2022/09/08 06:04:01;;;;;;;34.55;30.85;;;18.70;99.90;;;;;;5103156;27;36539;-57
2022/09/08 06:06:29;;;;;;;33.90;30.33;;;18.80;99.90;;;;;;5103763;27;38483;-57
2022/09/08 06:08:59;;;;;;;33.60;29.88;;;18.80;99.90;;;;;;5102777;27;38558;-57
2022/09/08 06:11:28;;;;;;;36.85;29.08;;;18.70;99.90;;;;;;5101290;27;37747;-57
2022/09/08 06:13:56;;;;;;;31.88;28.58;;;18.80;99.90;;;;;;5102463;27;37611;-57
2022/09/08 06:16:24;;;;;;;30.90;27.50;;;18.80;99.90;;;;;;5101814;27;36590;-57
2022/09/08 06:18:51;;;;;;;31.63;28.52;;;18.80;99.90;;;;;;5102390;27;37796;-57
2022/09/08 06:21:23;;;;;;;32.60;29.23;;;18.80;99.90;;;;;;5101755;27;37222;-57
2022/09/08 06:23:52;;;;;;;35.80;30.55;;;18.80;99.90;;;;;;5102603;27;38047;-57
2022/09/08 06:26:54;;;;;;;33.33;29.70;;;18.80;99.90;;;;;;5103265;27;38771;-57
2022/09/08 06:29:36;;;;;;;31.85;28.27;;;18.90;99.90;;;;;;5101794;27;37148;-57
2022/09/08 06:32:18;;;;;;;35.25;29.48;;;18.90;99.90;;;;;;5101605;27;36523;-57
2022/09/08 06:34:50;;;;;;;34.42;30.75;;;18.90;99.90;;;;;;5101667;27;37743;-57
2022/09/08 06:37:29;;;;;;;37.83;33.40;;;18.80;99.90;;;;;;5100829;27;37641;-57
2022/09/08 06:40:04;;;;;;;38.00;33.92;;;18.80;99.90;;;;;;5098920;27;38328;-59
2022/09/08 06:42:40;;;;;;;35.22;31.40;;;18.80;99.90;;;;;;5102101;27;37297;-59
2022/09/08 06:45:20;;;;;;;36.00;32.17;;;18.70;99.90;;;;;;5102648;27;37542;-59
2022/09/08 06:48:01;;;;;;;36.42;32.55;;;18.70;99.90;;;;;;5102208;27;38801;-60
2022/09/08 06:50:33;;;;;;;39.72;32.25;;;18.70;99.90;;;;;;5101874;27;37829;-59
2022/09/08 06:53:06;;;;;;;38.58;34.38;;;18.70;99.90;;;;;;5102021;27;36988;-59
2022/09/08 06:55:39;;;;;;;38.45;34.35;;;18.70;99.90;;;;;;5100820;27;36598;-59
2022/09/08 06:58:17;;;;;;;37.63;33.60;;;18.70;99.90;;;;;;5101936;27;38836;-60
2022/09/08 07:00:49;;;;;;;39.20;34.17;;;18.70;99.90;;;;;;5100549;27;37296;-61
2022/09/08 07:03:31;;;;;;;39.60;34.63;;;18.70;99.90;;;;;;5103428;27;37836;-62
2022/09/08 07:06:03;;;;;;;41.38;36.95;;;18.70;99.90;;;;;;5104328;27;36438;-58
2022/09/08 07:08:53;;;;;;;40.17;35.57;;;18.70;99.90;;;;;;5101085;27;37822;-58
2022/09/08 07:11:43;;;;;;;39.88;34.92;;;18.70;99.90;;;;;;5097757;27;36530;-57
2022/09/08 07:14:26;;;;;;;39.05;31.83;;;18.70;99.90;;;;;;5095290;27;36667;-58
2022/09/08 07:17:00;;;;;;;43.28;37.05;;;18.70;99.90;;;;;;5097552;27;36831;-58
2022/09/08 07:19:33;;;;;;;38.38;34.33;;;18.70;99.90;;;;;;5098526;27;37011;-59
2022/09/08 07:22:08;;;;;;;39.53;34.05;;;18.60;99.90;;;;;;5099168;27;36453;-57
2022/09/08 07:24:41;;;;;;;41.88;35.58;;;18.60;99.90;;;;;;5098089;27;36590;-60
2022/09/08 07:27:13;;;;;;;34.97;31.05;;;18.60;99.90;;;;;;5101413;27;36544;-61
2022/09/08 07:29:44;;;;;;;40.30;30.58;;;18.50;99.90;;;;;;5101032;27;36350;-57
2022/09/08 07:32:16;;;;;;;36.13;30.70;;;18.50;99.90;;;;;;5097758;27;38002;-59
2022/09/08 07:34:49;;;;;;;33.38;29.00;;;18.50;99.90;;;;;;5099776;27;37674;-59
2022/09/08 07:37:24;;;;;;;30.60;27.35;;;18.50;99.90;;;;;;5100913;27;36958;-58
2022/09/08 07:39:59;;;;;;;35.22;31.42;;;18.50;99.90;;;;;;5097577;27;38686;-57
2022/09/08 07:42:27;;;;;;;35.28;30.52;;;18.50;99.90;;;;;;5101110;27;38471;-57
2022/09/08 07:44:58;;;;;;;37.30;32.33;;;18.50;99.90;;;;;;5099245;27;37644;-58
2022/09/08 07:47:58;;;;;;;32.53;29.02;;;18.40;99.90;;;;;;5099821;27;36680;-58
2022/09/08 07:50:53;;;;;;;34.65;29.23;;;18.40;99.90;;;;;;5100013;27;36328;-56
2022/09/08 07:53:42;;;;;;;36.13;32.03;;;18.40;99.90;;;;;;5096402;27;39406;-57
2022/09/08 07:56:15;;;;;;;38.88;32.33;;;18.40;99.90;;;;;;5100229;27;37833;-58
2022/09/08 07:58:51;;;;;;;36.00;32.08;;;18.40;99.90;;;;;;5100984;27;38490;-58
2022/09/08 08:01:30;;;;;;;41.90;33.33;;;18.40;99.90;;;;;;5100170;27;36339;-58
2022/09/08 08:04:12;;;;;;;37.72;29.55;;;18.30;99.90;;;;;;5097661;27;39194;-57
2022/09/08 08:06:43;;;;;;;38.38;31.02;;;18.30;99.90;;;;;;5100924;27;36220;-58
2022/09/08 08:09:24;;;;;;;39.47;30.77;;;18.30;99.90;;;;;;5100424;27;35736;-58
2022/09/08 08:12:02;;;;;;;43.08;30.83;;;18.30;99.90;;;;;;5101168;27;36442;-58
2022/09/08 08:14:37;;;;;;;36.13;27.70;;;18.30;99.90;;;;;;5101640;27;37486;-58
2022/09/08 08:17:20;;;;;;;28.15;24.73;;;18.20;99.90;;;;;;5104575;27;37230;-58
2022/09/08 08:20:16;;;;;;;26.88;22.45;;;18.20;99.90;;;;;;5101461;27;37658;-58
2022/09/08 08:22:56;;;;;;;26.33;18.10;;;18.20;99.90;;;;;;5104636;27;36063;-58
2022/09/08 08:25:29;;;;;;;11.73;8.68;;;18.20;99.90;;;;;;5105440;27;37502;-58
2022/09/08 08:28:10;;;;;;;11.40;8.13;;;18.20;99.90;;;;;;5101630;27;37446;-57
2022/09/08 08:30:40;;;;;;;10.00;7.40;;;18.10;99.90;;;;;;5104796;27;36923;-58
2022/09/08 08:33:17;;;;;;;11.35;7.38;;;18.10;99.90;;;;;;5102719;27;36574;-58
2022/09/08 08:35:49;;;;;;;12.10;8.35;;;18.10;99.90;;;;;;5104349;27;38000;-59
2022/09/08 08:38:21;;;;;;;9.85;7.85;;;18.10;99.90;;;;;;5103891;27;37737;-59
2022/09/08 08:40:56;;;;;;;11.57;9.30;;;18.10;99.90;;;;;;5102842;27;35287;-59
2022/09/08 08:44:21;;;;;;;12.43;10.60;;;18.10;99.90;;;;;;5101431;27;38359;-59
2022/09/08 08:47:23;;;;;;;15.13;11.82;;;18.10;99.90;;;;;;5054374;28;37500;-59
2022/09/08 08:50:28;;;;;;;16.27;11.75;;;18.10;99.90;;;;;;5087100;27;39396;-58
2022/09/08 08:53:17;;;;;;;15.18;11.50;;;18.10;99.90;;;;;;5103517;27;36594;-59
2022/09/08 08:55:58;;;;;;;15.13;12.48;;;18.00;99.90;;;;;;5100420;27;37754;-60
2022/09/08 08:58:46;;;;;;;17.55;13.35;;;18.00;99.90;;;;;;5103921;27;36282;-60
2022/09/08 09:01:35;;;;;;;15.18;13.40;;;18.00;99.90;;;;;;5100801;27;37733;-59
2022/09/08 09:04:25;;;;;;;18.95;14.30;;;18.10;99.90;;;;;;5101290;27;35792;-59
2022/09/08 09:07:40;;;;;;;15.60;13.80;;;18.10;99.90;;;;;;5101741;27;38814;-59
2022/09/08 09:10:39;;;;;;;18.15;14.57;;;18.10;99.90;;;;;;5102084;27;38420;-59
2022/09/08 09:13:29;;;;;;;19.27;15.75;;;18.10;99.90;;;;;;5098598;27;38037;-59
2022/09/08 09:16:33;;;;;;;21.08;16.23;;;18.10;99.90;;;;;;5100260;27;36834;-59
2022/09/08 09:19:21;;;;;;;18.17;14.73;;;18.10;99.90;;;;;;5100929;27;37530;-59
2022/09/08 09:21:53;;;;;;;16.60;13.30;;;18.10;99.90;;;;;;5102248;27;38041;-59
2022/09/08 09:24:38;;;;;;;15.43;13.65;;;18.10;99.90;;;;;;5102509;27;37586;-59
2022/09/08 09:27:18;;;;;;;15.70;13.23;;;18.10;99.90;;;;;;5102326;27;38063;-59
2022/09/08 09:29:47;;;;;;;16.73;12.35;;;18.10;99.90;;;;;;5103612;27;36082;-59
2022/09/08 09:32:37;;;;;;;16.33;13.30;;;18.10;99.90;;;;;;5103732;27;38892;-59
2022/09/08 09:35:36;;;;;;;16.98;13.40;;;18.10;99.90;;;;;;5103969;27;37243;-59
2022/09/08 09:38:37;;;;;;;14.57;12.30;;;18.10;99.90;;;;;;5104943;27;36956;-59
2022/09/08 09:41:27;;;;;;;14.93;13.05;;;18.10;99.90;;;;;;5101402;27;38934;-59
2022/09/08 09:44:11;;;;;;;13.02;11.50;;;18.20;99.90;;;;;;5071299;27;38862;-59
2022/09/08 09:47:03;;;;;;;12.55;10.50;;;18.20;99.90;;;;;;5104369;27;37561;-59
2022/09/08 09:49:53;;;;;;;14.80;11.30;;;18.20;99.90;;;;;;5102499;27;37790;-59
2022/09/08 09:52:32;;;;;;;13.98;10.93;;;18.30;99.90;;;;;;5104803;27;37565;-59
2022/09/08 09:55:11;;;;;;;13.68;11.85;;;18.20;99.90;;;;;;5103788;27;38897;-60
2022/09/08 09:58:26;;;;;;;13.30;11.60;;;18.30;99.90;;;;;;5100499;27;37238;-59
2022/09/08 10:01:18;;;;;;;13.85;11.02;;;18.30;99.90;;;;;;5078254;27;36854;-59
2022/09/08 10:04:18;;;;;;;11.88;10.68;;;18.40;99.90;;;;;;5104074;27;37406;-59
2022/09/08 10:07:08;;;;;;;13.05;10.77;;;18.40;99.90;;;;;;5103422;27;37663;-59
2022/09/08 10:10:15;;;;;;;14.32;12.05;;;18.40;99.90;;;;;;5104244;27;36158;-59
2022/09/08 10:13:22;;;;;;;10.55;9.45;;;18.40;99.90;;;;;;5078969;27;37490;-59
2022/09/08 10:16:35;;;;;;;10.55;8.90;;;18.40;99.90;;;;;;5097559;27;38064;-59
2022/09/08 10:19:38;;;;;;;10.43;8.45;;;18.50;99.90;;;;;;5105663;27;36481;-59
2022/09/08 10:22:41;;;;;;;8.98;7.13;;;18.50;99.90;;;;;;5091821;27;36269;-59
2022/09/08 10:25:41;;;;;;;9.07;7.05;;;18.40;99.90;;;;;;5080003;27;35497;-59
2022/09/08 10:28:42;;;;;;;7.97;6.65;;;18.50;99.90;;;;;;5102199;27;39136;-59
2022/09/08 10:31:45;;;;;;;8.68;6.47;;;18.40;99.90;;;;;;5093932;27;37974;-59
2022/09/08 10:34:54;;;;;;;7.78;6.05;;;18.40;99.90;;;;;;5097808;27;37442;-59
2022/09/08 10:37:45;;;;;;;12.27;6.05;;;18.40;99.90;;;;;;5087855;27;38068;-59
2022/09/08 10:40:27;;;;;;;9.25;6.25;;;18.40;99.90;;;;;;5099819;27;37098;-59
2022/09/08 10:43:03;;;;;;;9.77;5.60;;;18.30;99.90;;;;;;5097652;27;38617;-59
2022/09/08 10:45:49;;;;;;;8.43;5.22;;;18.40;99.90;;;;;;5097526;27;36344;-59
2022/09/08 10:48:56;;;;;;;7.35;4.97;;;18.30;99.90;;;;;;5098433;27;36997;-59
2022/09/08 10:52:01;;;;;;;8.75;5.65;;;18.30;99.90;;;;;;5074495;27;38676;-60
2022/09/08 10:55:13;;;;;;;17.48;5.70;;;18.30;99.90;;;;;;5100429;27;37979;-60
2022/09/08 10:57:58;;;;;;;9.15;5.43;;;18.30;99.90;;;;;;5024469;27;37022;-59
2022/09/08 11:00:39;;;;;;;7.70;4.30;;;18.30;99.90;;;;;;5100718;27;37679;-59
2022/09/08 11:03:32;;;;;;;6.22;3.30;;;18.30;99.90;;;;;;5097892;27;37681;-59
2022/09/08 11:06:06;;;;;;;5.15;3.08;;;18.30;99.90;;;;;;5098863;27;38042;-60
2022/09/08 11:09:00;;;;;;;4.85;2.53;;;18.30;99.90;;;;;;5098968;27;37212;-59
2022/09/08 11:11:56;;;;;;;6.30;3.40;;;18.30;99.90;;;;;;5098929;27;35388;-60
2022/09/08 11:14:49;;;;;;;6.20;2.88;;;18.20;99.90;;;;;;5099403;27;36411;-59
2022/09/08 11:17:23;;;;;;;5.93;2.50;;;18.30;99.90;;;;;;5098127;27;37636;-59
2022/09/08 11:19:55;;;;;;;5.57;2.83;;;18.20;99.90;;;;;;5099601;27;38689;-59
2022/09/08 11:22:51;;;;;;;5.13;2.78;;;18.30;99.90;;;;;;5099641;27;37955;-59
2022/09/08 11:25:46;;;;;;;7.25;3.28;;;18.30;99.90;;;;;;5098535;27;36482;-59
2022/09/08 11:28:24;;;;;;;5.35;2.97;;;18.30;99.90;;;;;;5098678;27;39430;-59
2022/09/08 11:31:03;;;;;;;4.53;2.47;;;18.20;99.90;;;;;;5097385;27;37196;-59
2022/09/08 11:33:55;;;;;;;5.63;2.60;;;18.20;99.90;;;;;;5098740;27;38365;-59
2022/09/08 11:36:40;;;;;;;3.17;1.98;;;18.20;99.90;;;;;;5097132;27;37440;-59
2022/09/08 11:39:18;;;;;;;4.93;1.95;;;18.20;99.90;;;;;;5095589;27;38723;-59
2022/09/08 11:42:06;;;;;;;4.95;2.00;;;18.20;99.90;;;;;;5097253;27;39336;-60
2022/09/08 11:44:47;;;;;;;6.05;1.92;;;18.10;99.90;;;;;;5098570;27;37066;-59
2022/09/08 11:47:59;;;;;;;4.43;1.80;;;18.10;99.90;;;;;;5097945;27;37744;-59
2022/09/08 11:50:56;;;;;;;5.15;1.70;;;18.20;99.90;;;;;;5053660;27;38670;-59
2022/09/08 11:54:06;;;;;;;5.97;1.90;;;18.10;99.90;;;;;;5099000;27;37187;-59
2022/09/08 11:56:58;;;;;;;6.03;2.17;;;18.10;99.90;;;;;;5090890;27;36737;-59
2022/09/08 11:59:51;;;;;;;4.85;2.15;;;18.10;99.90;;;;;;5098857;27;39396;-59
2022/09/08 12:02:40;;;;;;;5.68;2.00;;;18.00;99.90;;;;;;5099902;27;37580;-59
2022/09/08 12:05:26;;;;;;;4.18;1.70;;;18.10;99.90;;;;;;5100507;27;37212;-59
2022/09/08 12:08:11;;;;;;;4.13;1.98;;;18.10;99.90;;;;;;5101297;27;36807;-59
2022/09/08 12:10:55;;;;;;;7.03;2.40;;;18.10;99.90;;;;;;5100508;27;37503;-59
2022/09/08 12:13:32;;;;;;;5.25;1.85;;;18.00;99.90;;;;;;5100872;27;37772;-59
2022/09/08 12:16:32;;;;;;;5.28;2.10;;;18.10;99.90;;;;;;5100106;27;37482;-59
2022/09/08 12:19:12;;;;;;;8.95;2.65;;;18.10;99.90;;;;;;5088183;27;36698;-59
2022/09/08 12:21:56;;;;;;;4.55;1.90;;;18.10;99.90;;;;;;5101592;27;38886;-59
2022/09/08 12:24:42;;;;;;;6.30;2.38;;;18.10;99.90;;;;;;5099689;27;38999;-59
2022/09/08 12:27:18;;;;;;;5.10;1.98;;;18.10;99.90;;;;;;5100359;27;37675;-59
2022/09/08 12:30:04;;;;;;;4.40;2.30;;;18.10;99.90;;;;;;5101219;27;36236;-59
2022/09/08 12:33:03;;;;;;;5.60;2.25;;;18.10;99.90;;;;;;5100148;27;38025;-59
2022/09/08 12:35:32;;;;;;;5.18;2.05;;;18.10;99.90;;;;;;5100610;27;37856;-59
2022/09/08 12:38:36;;;;;;;4.90;2.17;;;18.10;99.90;;;;;;5099161;27;36513;-59
2022/09/08 12:41:21;;;;;;;4.40;2.38;;;18.10;99.90;;;;;;5075698;27;38526;-59
2022/09/08 12:43:48;;;;;;;7.35;2.78;;;18.10;99.90;;;;;;5100204;27;36310;-59
2022/09/08 12:46:41;;;;;;;5.93;2.22;;;18.10;99.90;;;;;;5100633;27;38082;-59
2022/09/08 12:49:27;;;;;;;5.80;2.63;;;18.20;99.90;;;;;;5100051;27;39234;-59
2022/09/08 12:52:00;;;;;;;6.90;2.75;;;18.20;99.90;;;;;;5101018;27;37648;-59
2022/09/08 12:54:40;;;;;;;7.13;2.63;;;18.20;99.90;;;;;;5100013;27;37228;-59
2022/09/08 12:57:34;;;;;;;5.95;2.90;;;18.20;99.90;;;;;;5099882;27;40186;-59
2022/09/08 13:00:09;;;;;;;4.55;2.95;;;18.20;99.90;;;;;;5100049;27;37945;-59
2022/09/08 13:02:58;;;;;;;8.25;3.75;;;18.20;99.90;;;;;;5100362;27;37822;-59
2022/09/08 13:05:46;;;;;;;9.30;3.58;;;18.20;99.90;;;;;;5099834;27;38449;-59
2022/09/08 13:08:34;;;;;;;5.47;3.25;;;18.20;99.90;;;;;;5099498;27;37857;-59
2022/09/08 13:11:08;;;;;;;6.45;3.67;;;18.20;99.90;;;;;;5099609;27;38399;-59
2022/09/08 13:13:41;;;;;;;8.40;4.00;;;18.20;99.90;;;;;;5101275;27;35470;-59
2022/09/08 13:16:25;;;;;;;9.18;4.57;;;18.20;99.90;;;;;;5100443;27;38069;-59
2022/09/08 13:19:03;;;;;;;6.18;3.78;;;18.20;99.90;;;;;;5104153;27;37773;-60
2022/09/08 13:21:53;;;;;;;8.18;4.50;;;18.20;99.90;;;;;;5102986;27;37243;-59
2022/09/08 13:24:29;;;;;;;9.02;4.97;;;18.20;99.90;;;;;;5103259;27;37811;-59
2022/09/08 13:27:14;;;;;;;7.00;4.78;;;18.30;99.90;;;;;;5103243;27;38844;-60
2022/09/08 13:30:05;;;;;;;8.50;4.53;;;18.30;99.90;;;;;;5103545;27;40369;-59